sensor_id;sensor_type;location;lat;lon;timestamp;P1;durP1;ratioP1;P2;durP2;ratioP2
82869;SDS011;72645;47.136;15.420;2023-09-12T00:01:33;13.30;;;9.40;;
82869;SDS011;72645;47.136;15.420;2023-09-12T00:04:05;12.40;;;10.60;;
82869;SDS011;72645;47.136;15.420;2023-09-12T00:06:36;14.10;;;10.20;;
82869;SDS011;72645;47.136;15.420;2023-09-12T00:09:06;13.60;;;11.00;;
82869;SDS011;72645;47.136;15.420;2023-09-12T00:11:38;13.40;;;11.20;;
82869;SDS011;72645;47.136;15.420;2023-09-12T00:14:09;14.20;;;11.30;;
82869;SDS011;72645;47.136;15.420;2023-09-12T00:16:43;12.30;;;10.10;;
82869;SDS011;72645;47.136;15.420;2023-09-12T00:19:14;12.40;;;8.90;;
82869;SDS011;72645;47.136;15.420;2023-09-12T00:21:45;11.10;;;8.70;;
82869;SDS011;72645;47.136;15.420;2023-09-12T00:24:16;12.20;;;8.20;;
82869;SDS011;72645;47.136;15.420;2023-09-12T00:26:47;11.70;;;9.80;;
82869;SDS011;72645;47.136;15.420;2023-09-12T00:29:18;13.80;;;9.80;;
82869;SDS011;72645;47.136;15.420;2023-09-12T00:31:48;14.00;;;10.60;;
82869;SDS011;72645;47.136;15.420;2023-09-12T00:34:19;12.80;;;10.90;;
82869;SDS011;72645;47.136;15.420;2023-09-12T00:36:50;14.30;;;11.60;;
82869;SDS011;72645;47.136;15.420;2023-09-12T00:39:21;15.30;;;12.00;;
82869;SDS011;72645;47.136;15.420;2023-09-12T00:41:52;14.30;;;10.20;;
82869;SDS011;72645;47.136;15.420;2023-09-12T00:44:22;12.10;;;8.60;;
82869;SDS011;72645;47.136;15.420;2023-09-12T00:46:53;14.50;;;8.70;;
82869;SDS011;72645;47.136;15.420;2023-09-12T00:49:25;13.00;;;7.90;;
82869;SDS011;72645;47.136;15.420;2023-09-12T00:51:57;12.40;;;10.10;;
82869;SDS011;72645;47.136;15.420;2023-09-12T00:54:31;13.20;;;11.00;;
82869;SDS011;72645;47.136;15.420;2023-09-12T00:57:02;13.60;;;10.40;;
82869;SDS011;72645;47.136;15.420;2023-09-12T00:59:33;12.60;;;10.30;;
82869;SDS011;72645;47.136;15.420;2023-09-12T01:02:04;13.80;;;11.20;;
82869;SDS011;72645;47.136;15.420;2023-09-12T01:04:36;14.80;;;12.20;;
82869;SDS011;72645;47.136;15.420;2023-09-12T01:07:07;14.60;;;10.30;;
82869;SDS011;72645;47.136;15.420;2023-09-12T01:09:37;13.50;;;9.00;;
82869;SDS011;72645;47.136;15.420;2023-09-12T01:12:09;13.60;;;8.40;;
82869;SDS011;72645;47.136;15.420;2023-09-12T01:14:42;13.20;;;8.00;;
82869;SDS011;72645;47.136;15.420;2023-09-12T01:17:13;13.10;;;9.70;;
82869;SDS011;72645;47.136;15.420;2023-09-12T01:19:44;14.20;;;10.50;;
82869;SDS011;72645;47.136;15.420;2023-09-12T01:22:25;16.80;;;10.40;;
82869;SDS011;72645;47.136;15.420;2023-09-12T01:25:27;15.00;;;10.70;;
82869;SDS011;72645;47.136;15.420;2023-09-12T01:28:10;12.60;;;10.50;;
82869;SDS011;72645;47.136;15.420;2023-09-12T01:30:44;14.70;;;11.90;;
82869;SDS011;72645;47.136;15.420;2023-09-12T01:33:17;11.30;;;9.70;;
82869;SDS011;72645;47.136;15.420;2023-09-12T01:35:49;18.80;;;9.00;;
82869;SDS011;72645;47.136;15.420;2023-09-12T01:38:20;11.30;;;8.40;;
82869;SDS011;72645;47.136;15.420;2023-09-12T01:40:52;10.40;;;8.10;;
82869;SDS011;72645;47.136;15.420;2023-09-12T01:43:25;16.00;;;9.30;;
82869;SDS011;72645;47.136;15.420;2023-09-12T01:45:58;13.20;;;10.30;;
82869;SDS011;72645;47.136;15.420;2023-09-12T01:48:32;12.50;;;10.90;;
82869;SDS011;72645;47.136;15.420;2023-09-12T01:51:05;13.60;;;10.30;;
82869;SDS011;72645;47.136;15.420;2023-09-12T01:53:38;14.00;;;11.50;;
82869;SDS011;72645;47.136;15.420;2023-09-12T01:56:10;14.00;;;9.50;;
82869;SDS011;72645;47.136;15.420;2023-09-12T01:58:41;11.80;;;9.10;;
82869;SDS011;72645;47.136;15.420;2023-09-12T02:01:12;10.40;;;8.90;;
82869;SDS011;72645;47.136;15.420;2023-09-12T02:03:43;10.30;;;7.20;;
82869;SDS011;72645;47.136;15.420;2023-09-12T02:06:14;15.00;;;10.20;;
82869;SDS011;72645;47.136;15.420;2023-09-12T02:08:45;14.00;;;11.00;;
82869;SDS011;72645;47.136;15.420;2023-09-12T02:11:16;14.30;;;10.70;;
82869;SDS011;72645;47.136;15.420;2023-09-12T02:13:47;13.80;;;9.80;;
82869;SDS011;72645;47.136;15.420;2023-09-12T02:16:17;14.80;;;10.00;;
82869;SDS011;72645;47.136;15.420;2023-09-12T02:18:48;14.40;;;10.40;;
82869;SDS011;72645;47.136;15.420;2023-09-12T02:21:19;14.20;;;10.80;;
82869;SDS011;72645;47.136;15.420;2023-09-12T02:23:50;13.30;;;8.80;;
82869;SDS011;72645;47.136;15.420;2023-09-12T02:26:20;10.70;;;8.30;;
82869;SDS011;72645;47.136;15.420;2023-09-12T02:28:51;12.30;;;8.30;;
82869;SDS011;72645;47.136;15.420;2023-09-12T02:31:22;12.30;;;9.60;;
82869;SDS011;72645;47.136;15.420;2023-09-12T02:33:53;11.80;;;9.70;;
82869;SDS011;72645;47.136;15.420;2023-09-12T02:36:24;14.70;;;10.40;;
82869;SDS011;72645;47.136;15.420;2023-09-12T02:38:55;13.70;;;10.50;;
82869;SDS011;72645;47.136;15.420;2023-09-12T02:41:26;13.60;;;10.90;;
82869;SDS011;72645;47.136;15.420;2023-09-12T02:43:57;12.20;;;10.90;;
82869;SDS011;72645;47.136;15.420;2023-09-12T02:46:28;11.80;;;9.60;;
82869;SDS011;72645;47.136;15.420;2023-09-12T02:48:58;13.80;;;8.80;;
82869;SDS011;72645;47.136;15.420;2023-09-12T02:51:29;9.80;;;8.20;;
82869;SDS011;72645;47.136;15.420;2023-09-12T02:54:00;11.00;;;7.70;;
82869;SDS011;72645;47.136;15.420;2023-09-12T02:56:31;12.10;;;9.50;;
82869;SDS011;72645;47.136;15.420;2023-09-12T02:59:02;16.10;;;10.20;;
82869;SDS011;72645;47.136;15.420;2023-09-12T03:01:32;11.30;;;9.60;;
82869;SDS011;72645;47.136;15.420;2023-09-12T03:04:03;13.10;;;10.10;;
82869;SDS011;72645;47.136;15.420;2023-09-12T03:06:34;13.80;;;10.50;;
82869;SDS011;72645;47.136;15.420;2023-09-12T03:09:05;12.40;;;9.70;;
82869;SDS011;72645;47.136;15.420;2023-09-12T03:11:37;11.60;;;8.80;;
82869;SDS011;72645;47.136;15.420;2023-09-12T03:14:07;10.90;;;7.60;;
82869;SDS011;72645;47.136;15.420;2023-09-12T03:16:38;11.80;;;8.00;;
82869;SDS011;72645;47.136;15.420;2023-09-12T03:19:09;11.70;;;9.60;;
82869;SDS011;72645;47.136;15.420;2023-09-12T03:21:40;12.50;;;8.80;;
82869;SDS011;72645;47.136;15.420;2023-09-12T03:24:11;11.90;;;9.40;;
82869;SDS011;72645;47.136;15.420;2023-09-12T03:26:42;13.40;;;10.00;;
82869;SDS011;72645;47.136;15.420;2023-09-12T03:29:12;13.00;;;9.60;;
82869;SDS011;72645;47.136;15.420;2023-09-12T03:31:43;18.50;;;9.50;;
82869;SDS011;72645;47.136;15.420;2023-09-12T03:34:14;12.90;;;9.10;;
82869;SDS011;72645;47.136;15.420;2023-09-12T03:36:45;9.80;;;7.70;;
82869;SDS011;72645;47.136;15.420;2023-09-12T03:39:15;11.20;;;7.90;;
82869;SDS011;72645;47.136;15.420;2023-09-12T03:41:46;11.00;;;8.10;;
82869;SDS011;72645;47.136;15.420;2023-09-12T03:44:17;11.40;;;9.20;;
82869;SDS011;72645;47.136;15.420;2023-09-12T03:46:48;11.80;;;9.20;;
82869;SDS011;72645;47.136;15.420;2023-09-12T03:49:18;15.90;;;12.30;;
82869;SDS011;72645;47.136;15.420;2023-09-12T03:51:49;11.50;;;9.50;;
82869;SDS011;72645;47.136;15.420;2023-09-12T03:54:20;11.50;;;9.00;;
82869;SDS011;72645;47.136;15.420;2023-09-12T03:56:51;13.20;;;9.20;;
82869;SDS011;72645;47.136;15.420;2023-09-12T03:59:22;11.60;;;8.60;;
82869;SDS011;72645;47.136;15.420;2023-09-12T04:01:52;11.30;;;8.30;;
82869;SDS011;72645;47.136;15.420;2023-09-12T04:04:23;12.20;;;8.20;;
82869;SDS011;72645;47.136;15.420;2023-09-12T04:06:54;9.80;;;7.40;;
82869;SDS011;72645;47.136;15.420;2023-09-12T04:09:25;11.40;;;8.30;;
82869;SDS011;72645;47.136;15.420;2023-09-12T04:11:56;12.70;;;9.00;;
82869;SDS011;72645;47.136;15.420;2023-09-12T04:14:27;11.40;;;9.20;;
82869;SDS011;72645;47.136;15.420;2023-09-12T04:16:57;14.70;;;9.20;;
82869;SDS011;72645;47.136;15.420;2023-09-12T04:19:29;13.70;;;8.30;;
82869;SDS011;72645;47.136;15.420;2023-09-12T04:22:00;10.90;;;8.80;;
82869;SDS011;72645;47.136;15.420;2023-09-12T04:24:32;11.80;;;7.10;;
82869;SDS011;72645;47.136;15.420;2023-09-12T04:27:03;10.30;;;7.70;;
82869;SDS011;72645;47.136;15.420;2023-09-12T04:29:34;11.40;;;7.40;;
82869;SDS011;72645;47.136;15.420;2023-09-12T04:32:05;12.10;;;8.70;;
82869;SDS011;72645;47.136;15.420;2023-09-12T04:34:36;16.40;;;10.00;;
82869;SDS011;72645;47.136;15.420;2023-09-12T04:37:07;14.30;;;8.80;;
82869;SDS011;72645;47.136;15.420;2023-09-12T04:39:38;14.90;;;9.30;;
82869;SDS011;72645;47.136;15.420;2023-09-12T04:42:08;12.60;;;9.20;;
82869;SDS011;72645;47.136;15.420;2023-09-12T04:44:40;11.40;;;7.90;;
82869;SDS011;72645;47.136;15.420;2023-09-12T04:47:11;12.30;;;8.90;;
82869;SDS011;72645;47.136;15.420;2023-09-12T04:49:43;12.10;;;8.50;;
82869;SDS011;72645;47.136;15.420;2023-09-12T04:52:14;12.70;;;8.50;;
82869;SDS011;72645;47.136;15.420;2023-09-12T04:54:45;13.90;;;8.60;;
82869;SDS011;72645;47.136;15.420;2023-09-12T04:57:15;13.60;;;8.10;;
82869;SDS011;72645;47.136;15.420;2023-09-12T04:59:46;11.80;;;8.80;;
82869;SDS011;72645;47.136;15.420;2023-09-12T05:02:17;14.30;;;8.40;;
82869;SDS011;72645;47.136;15.420;2023-09-12T05:04:48;12.40;;;9.40;;
82869;SDS011;72645;47.136;15.420;2023-09-12T05:07:19;9.70;;;6.90;;
82869;SDS011;72645;47.136;15.420;2023-09-12T05:09:50;10.90;;;7.30;;
82869;SDS011;72645;47.136;15.420;2023-09-12T05:12:21;12.60;;;7.10;;
82869;SDS011;72645;47.136;15.420;2023-09-12T05:14:52;9.90;;;7.40;;
82869;SDS011;72645;47.136;15.420;2023-09-12T05:17:23;12.60;;;8.00;;
82869;SDS011;72645;47.136;15.420;2023-09-12T05:19:53;9.50;;;7.70;;
82869;SDS011;72645;47.136;15.420;2023-09-12T05:22:24;11.60;;;8.30;;
82869;SDS011;72645;47.136;15.420;2023-09-12T05:24:55;14.70;;;9.20;;
82869;SDS011;72645;47.136;15.420;2023-09-12T05:27:26;12.70;;;9.60;;
82869;SDS011;72645;47.136;15.420;2023-09-12T05:29:57;12.10;;;8.90;;
82869;SDS011;72645;47.136;15.420;2023-09-12T05:32:28;11.20;;;9.30;;
82869;SDS011;72645;47.136;15.420;2023-09-12T05:34:59;14.60;;;8.60;;
82869;SDS011;72645;47.136;15.420;2023-09-12T05:37:48;12.80;;;7.80;;
82869;SDS011;72645;47.136;15.420;2023-09-12T05:40:19;14.80;;;7.70;;
82869;SDS011;72645;47.136;15.420;2023-09-12T05:42:50;9.60;;;7.30;;
82869;SDS011;72645;47.136;15.420;2023-09-12T05:45:21;10.00;;;8.20;;
82869;SDS011;72645;47.136;15.420;2023-09-12T05:47:52;13.20;;;8.80;;
82869;SDS011;72645;47.136;15.420;2023-09-12T05:50:23;17.30;;;8.50;;
82869;SDS011;72645;47.136;15.420;2023-09-12T05:52:54;10.30;;;8.70;;
82869;SDS011;72645;47.136;15.420;2023-09-12T05:55:25;14.40;;;9.10;;
82869;SDS011;72645;47.136;15.420;2023-09-12T05:57:55;14.80;;;9.70;;
82869;SDS011;72645;47.136;15.420;2023-09-12T06:00:26;9.90;;;7.40;;
82869;SDS011;72645;47.136;15.420;2023-09-12T06:02:57;14.90;;;8.20;;
82869;SDS011;72645;47.136;15.420;2023-09-12T06:05:28;14.80;;;8.90;;
82869;SDS011;72645;47.136;15.420;2023-09-12T06:07:59;10.30;;;7.80;;
82869;SDS011;72645;47.136;15.420;2023-09-12T06:10:30;12.40;;;8.60;;
82869;SDS011;72645;47.136;15.420;2023-09-12T06:13:01;11.40;;;8.10;;
82869;SDS011;72645;47.136;15.420;2023-09-12T06:15:32;14.00;;;9.10;;
82869;SDS011;72645;47.136;15.420;2023-09-12T06:18:04;12.10;;;8.90;;
82869;SDS011;72645;47.136;15.420;2023-09-12T06:20:35;10.30;;;9.20;;
82869;SDS011;72645;47.136;15.420;2023-09-12T06:23:05;15.40;;;9.10;;
82869;SDS011;72645;47.136;15.420;2023-09-12T06:25:39;11.80;;;8.40;;
82869;SDS011;72645;47.136;15.420;2023-09-12T06:28:10;12.40;;;8.30;;
82869;SDS011;72645;47.136;15.420;2023-09-12T06:30:40;11.60;;;8.00;;
82869;SDS011;72645;47.136;15.420;2023-09-12T06:33:11;13.10;;;9.50;;
82869;SDS011;72645;47.136;15.420;2023-09-12T06:35:42;11.80;;;8.70;;
82869;SDS011;72645;47.136;15.420;2023-09-12T06:38:16;12.10;;;9.30;;
82869;SDS011;72645;47.136;15.420;2023-09-12T06:40:47;17.90;;;10.00;;
82869;SDS011;72645;47.136;15.420;2023-09-12T06:43:19;12.70;;;8.90;;
82869;SDS011;72645;47.136;15.420;2023-09-12T06:45:50;13.10;;;9.60;;
82869;SDS011;72645;47.136;15.420;2023-09-12T06:48:21;10.60;;;8.20;;
82869;SDS011;72645;47.136;15.420;2023-09-12T06:50:52;14.90;;;8.40;;
82869;SDS011;72645;47.136;15.420;2023-09-12T06:53:23;11.10;;;8.90;;
82869;SDS011;72645;47.136;15.420;2023-09-12T06:55:54;12.00;;;8.70;;
82869;SDS011;72645;47.136;15.420;2023-09-12T06:58:26;12.30;;;8.90;;
82869;SDS011;72645;47.136;15.420;2023-09-12T07:01:00;12.00;;;8.60;;
82869;SDS011;72645;47.136;15.420;2023-09-12T07:03:33;16.00;;;9.80;;
82869;SDS011;72645;47.136;15.420;2023-09-12T07:06:05;13.00;;;9.80;;
82869;SDS011;72645;47.136;15.420;2023-09-12T07:08:36;13.60;;;8.80;;
82869;SDS011;72645;47.136;15.420;2023-09-12T07:11:07;16.60;;;9.90;;
82869;SDS011;72645;47.136;15.420;2023-09-12T07:13:37;13.40;;;9.20;;
82869;SDS011;72645;47.136;15.420;2023-09-12T07:16:11;17.70;;;8.10;;
82869;SDS011;72645;47.136;15.420;2023-09-12T07:18:42;13.00;;;9.40;;
82869;SDS011;72645;47.136;15.420;2023-09-12T07:21:14;13.50;;;9.00;;
82869;SDS011;72645;47.136;15.420;2023-09-12T07:23:47;13.00;;;8.70;;
82869;SDS011;72645;47.136;15.420;2023-09-12T07:26:18;13.80;;;9.80;;
82869;SDS011;72645;47.136;15.420;2023-09-12T07:28:48;15.20;;;9.00;;
82869;SDS011;72645;47.136;15.420;2023-09-12T07:31:19;14.00;;;9.50;;
82869;SDS011;72645;47.136;15.420;2023-09-12T07:33:50;18.20;;;10.10;;
82869;SDS011;72645;47.136;15.420;2023-09-12T07:36:21;13.10;;;9.40;;
82869;SDS011;72645;47.136;15.420;2023-09-12T07:38:52;17.50;;;10.20;;
82869;SDS011;72645;47.136;15.420;2023-09-12T07:41:23;16.60;;;9.00;;
82869;SDS011;72645;47.136;15.420;2023-09-12T07:43:53;13.30;;;8.20;;
82869;SDS011;72645;47.136;15.420;2023-09-12T07:46:24;12.20;;;9.00;;
82869;SDS011;72645;47.136;15.420;2023-09-12T07:48:55;15.90;;;9.30;;
82869;SDS011;72645;47.136;15.420;2023-09-12T07:51:27;14.40;;;9.20;;
82869;SDS011;72645;47.136;15.420;2023-09-12T07:53:58;14.90;;;9.00;;
82869;SDS011;72645;47.136;15.420;2023-09-12T07:56:28;15.50;;;9.90;;
82869;SDS011;72645;47.136;15.420;2023-09-12T07:58:59;15.50;;;9.00;;
82869;SDS011;72645;47.136;15.420;2023-09-12T08:01:30;13.10;;;9.20;;
82869;SDS011;72645;47.136;15.420;2023-09-12T08:04:01;17.70;;;9.20;;
82869;SDS011;72645;47.136;15.420;2023-09-12T08:06:33;16.50;;;9.00;;
82869;SDS011;72645;47.136;15.420;2023-09-12T08:09:22;12.60;;;8.80;;
82869;SDS011;72645;47.136;15.420;2023-09-12T08:11:53;13.20;;;9.00;;
82869;SDS011;72645;47.136;15.420;2023-09-12T08:14:24;16.60;;;9.80;;
82869;SDS011;72645;47.136;15.420;2023-09-12T08:16:55;16.10;;;8.90;;
82869;SDS011;72645;47.136;15.420;2023-09-12T08:19:26;13.40;;;9.00;;
82869;SDS011;72645;47.136;15.420;2023-09-12T08:21:56;14.50;;;8.30;;
82869;SDS011;72645;47.136;15.420;2023-09-12T08:24:27;12.90;;;8.70;;
82869;SDS011;72645;47.136;15.420;2023-09-12T08:26:58;12.00;;;8.70;;
82869;SDS011;72645;47.136;15.420;2023-09-12T08:29:30;13.70;;;9.10;;
82869;SDS011;72645;47.136;15.420;2023-09-12T08:32:01;12.00;;;8.90;;
82869;SDS011;72645;47.136;15.420;2023-09-12T08:34:33;12.40;;;9.10;;
82869;SDS011;72645;47.136;15.420;2023-09-12T08:37:04;14.70;;;9.20;;
82869;SDS011;72645;47.136;15.420;2023-09-12T08:39:41;17.70;;;8.90;;
82869;SDS011;72645;47.136;15.420;2023-09-12T08:42:14;12.90;;;8.30;;
82869;SDS011;72645;47.136;15.420;2023-09-12T08:44:45;11.80;;;8.50;;
82869;SDS011;72645;47.136;15.420;2023-09-12T08:47:16;12.00;;;8.50;;
82869;SDS011;72645;47.136;15.420;2023-09-12T08:49:52;13.90;;;8.20;;
82869;SDS011;72645;47.136;15.420;2023-09-12T08:52:23;13.20;;;9.20;;
82869;SDS011;72645;47.136;15.420;2023-09-12T08:54:54;12.60;;;8.30;;
82869;SDS011;72645;47.136;15.420;2023-09-12T08:57:25;14.40;;;9.10;;
82869;SDS011;72645;47.136;15.420;2023-09-12T08:59:56;13.20;;;8.70;;
82869;SDS011;72645;47.136;15.420;2023-09-12T09:02:27;11.10;;;8.00;;
82869;SDS011;72645;47.136;15.420;2023-09-12T09:04:59;11.80;;;8.10;;
82869;SDS011;72645;47.136;15.420;2023-09-12T09:07:33;15.20;;;9.10;;
82869;SDS011;72645;47.136;15.420;2023-09-12T09:10:07;12.70;;;8.30;;
82869;SDS011;72645;47.136;15.420;2023-09-12T09:12:39;14.70;;;8.80;;
82869;SDS011;72645;47.136;15.420;2023-09-12T09:15:22;11.30;;;8.80;;
82869;SDS011;72645;47.136;15.420;2023-09-12T09:17:55;12.60;;;8.00;;
82869;SDS011;72645;47.136;15.420;2023-09-12T09:20:29;11.70;;;7.80;;
82869;SDS011;72645;47.136;15.420;2023-09-12T09:23:02;14.00;;;8.00;;
82869;SDS011;72645;47.136;15.420;2023-09-12T09:25:38;11.40;;;7.90;;
82869;SDS011;72645;47.136;15.420;2023-09-12T09:28:17;13.00;;;7.90;;
82869;SDS011;72645;47.136;15.420;2023-09-12T09:30:49;12.40;;;7.80;;
82869;SDS011;72645;47.136;15.420;2023-09-12T09:33:23;11.60;;;8.70;;
82869;SDS011;72645;47.136;15.420;2023-09-12T09:36:01;13.10;;;8.60;;
82869;SDS011;72645;47.136;15.420;2023-09-12T09:38:33;15.60;;;8.60;;
82869;SDS011;72645;47.136;15.420;2023-09-12T09:41:05;12.60;;;7.90;;
82869;SDS011;72645;47.136;15.420;2023-09-12T09:43:36;14.40;;;8.40;;
82869;SDS011;72645;47.136;15.420;2023-09-12T09:46:07;10.60;;;8.50;;
82869;SDS011;72645;47.136;15.420;2023-09-12T09:48:49;11.40;;;7.70;;
82869;SDS011;72645;47.136;15.420;2023-09-12T09:51:21;10.50;;;7.00;;
82869;SDS011;72645;47.136;15.420;2023-09-12T09:53:53;10.90;;;7.10;;
82869;SDS011;72645;47.136;15.420;2023-09-12T09:56:26;14.50;;;8.10;;
82869;SDS011;72645;47.136;15.420;2023-09-12T09:58:58;23.70;;;10.20;;
82869;SDS011;72645;47.136;15.420;2023-09-12T10:01:29;44.50;;;18.80;;
82869;SDS011;72645;47.136;15.420;2023-09-12T10:04:03;23.90;;;11.10;;
82869;SDS011;72645;47.136;15.420;2023-09-12T10:06:34;16.60;;;9.30;;
82869;SDS011;72645;47.136;15.420;2023-09-12T10:09:09;13.30;;;7.70;;
82869;SDS011;72645;47.136;15.420;2023-09-12T10:11:42;10.40;;;7.90;;
82869;SDS011;72645;47.136;15.420;2023-09-12T10:14:15;10.60;;;6.90;;
82869;SDS011;72645;47.136;15.420;2023-09-12T10:16:49;9.20;;;7.70;;
82869;SDS011;72645;47.136;15.420;2023-09-12T10:19:26;8.00;;;6.50;;
82869;SDS011;72645;47.136;15.420;2023-09-12T10:22:06;13.20;;;7.00;;
82869;SDS011;72645;47.136;15.420;2023-09-12T10:24:39;12.40;;;7.60;;
82869;SDS011;72645;47.136;15.420;2023-09-12T10:27:11;11.20;;;7.60;;
82869;SDS011;72645;47.136;15.420;2023-09-12T10:29:43;13.60;;;8.50;;
82869;SDS011;72645;47.136;15.420;2023-09-12T10:32:17;8.90;;;6.10;;
82869;SDS011;72645;47.136;15.420;2023-09-12T10:34:50;17.20;;;8.00;;
82869;SDS011;72645;47.136;15.420;2023-09-12T10:37:27;10.60;;;7.70;;
82869;SDS011;72645;47.136;15.420;2023-09-12T10:40:00;10.20;;;6.90;;
82869;SDS011;72645;47.136;15.420;2023-09-12T10:42:35;11.10;;;7.00;;
82869;SDS011;72645;47.136;15.420;2023-09-12T10:45:08;11.40;;;7.90;;
82869;SDS011;72645;47.136;15.420;2023-09-12T10:47:41;14.90;;;7.00;;
82869;SDS011;72645;47.136;15.420;2023-09-12T10:50:12;9.70;;;7.30;;
82869;SDS011;72645;47.136;15.420;2023-09-12T10:52:46;11.50;;;7.50;;
82869;SDS011;72645;47.136;15.420;2023-09-12T10:55:17;12.80;;;7.60;;
82869;SDS011;72645;47.136;15.420;2023-09-12T10:58:04;9.70;;;6.70;;
82869;SDS011;72645;47.136;15.420;2023-09-12T11:06:19;13.20;;;8.00;;
82869;SDS011;72645;47.136;15.420;2023-09-12T11:11:48;21.50;;;11.60;;
82869;SDS011;72645;47.136;15.420;2023-09-12T11:14:23;14.10;;;8.30;;
82869;SDS011;72645;47.136;15.420;2023-09-12T11:19:56;13.70;;;8.60;;
82869;SDS011;72645;47.136;15.420;2023-09-12T11:22:38;15.80;;;9.50;;
82869;SDS011;72645;47.136;15.420;2023-09-12T11:25:20;12.50;;;8.90;;
82869;SDS011;72645;47.136;15.420;2023-09-12T11:28:05;10.60;;;8.20;;
82869;SDS011;72645;47.136;15.420;2023-09-12T11:30:36;12.60;;;7.90;;
82869;SDS011;72645;47.136;15.420;2023-09-12T11:33:24;11.30;;;8.00;;
82869;SDS011;72645;47.136;15.420;2023-09-12T11:35:56;10.40;;;7.90;;
82869;SDS011;72645;47.136;15.420;2023-09-12T11:38:30;12.30;;;8.20;;
82869;SDS011;72645;47.136;15.420;2023-09-12T11:41:01;14.50;;;9.60;;
82869;SDS011;72645;47.136;15.420;2023-09-12T11:43:32;9.30;;;7.80;;
82869;SDS011;72645;47.136;15.420;2023-09-12T11:46:06;13.30;;;8.40;;
82869;SDS011;72645;47.136;15.420;2023-09-12T11:48:38;10.90;;;7.50;;
82869;SDS011;72645;47.136;15.420;2023-09-12T11:51:09;9.60;;;7.30;;
82869;SDS011;72645;47.136;15.420;2023-09-12T11:53:40;12.10;;;8.20;;
82869;SDS011;72645;47.136;15.420;2023-09-12T11:56:11;11.20;;;8.00;;
82869;SDS011;72645;47.136;15.420;2023-09-12T11:58:42;10.00;;;8.00;;
82869;SDS011;72645;47.136;15.420;2023-09-12T12:01:13;10.30;;;8.40;;
82869;SDS011;72645;47.136;15.420;2023-09-12T12:03:45;11.00;;;7.60;;
82869;SDS011;72645;47.136;15.420;2023-09-12T12:06:21;12.60;;;8.30;;
82869;SDS011;72645;47.136;15.420;2023-09-12T12:08:53;10.60;;;7.40;;
82869;SDS011;72645;47.136;15.420;2023-09-12T12:11:24;9.20;;;8.00;;
82869;SDS011;72645;47.136;15.420;2023-09-12T12:13:58;10.40;;;8.10;;
82869;SDS011;72645;47.136;15.420;2023-09-12T12:16:40;12.40;;;7.80;;
82869;SDS011;72645;47.136;15.420;2023-09-12T12:19:11;8.70;;;6.80;;
82869;SDS011;72645;47.136;15.420;2023-09-12T12:21:42;12.40;;;7.80;;
82869;SDS011;72645;47.136;15.420;2023-09-12T12:24:14;9.70;;;7.10;;
82869;SDS011;72645;47.136;15.420;2023-09-12T12:26:45;11.70;;;7.30;;
82869;SDS011;72645;47.136;15.420;2023-09-12T12:29:16;10.20;;;7.80;;
82869;SDS011;72645;47.136;15.420;2023-09-12T12:31:46;8.60;;;7.30;;
82869;SDS011;72645;47.136;15.420;2023-09-12T12:34:21;9.20;;;7.20;;
82869;SDS011;72645;47.136;15.420;2023-09-12T12:37:11;8.20;;;6.50;;
82869;SDS011;72645;47.136;15.420;2023-09-12T12:39:43;9.20;;;7.10;;
82869;SDS011;72645;47.136;15.420;2023-09-12T12:42:17;7.70;;;6.90;;
82869;SDS011;72645;47.136;15.420;2023-09-12T12:44:53;10.60;;;7.20;;
82869;SDS011;72645;47.136;15.420;2023-09-12T12:47:24;11.40;;;7.20;;
82869;SDS011;72645;47.136;15.420;2023-09-12T12:49:56;11.70;;;7.10;;
82869;SDS011;72645;47.136;15.420;2023-09-12T12:52:27;11.20;;;7.40;;
82869;SDS011;72645;47.136;15.420;2023-09-12T12:55:04;7.80;;;6.70;;
82869;SDS011;72645;47.136;15.420;2023-09-12T12:57:38;12.20;;;8.30;;
82869;SDS011;72645;47.136;15.420;2023-09-12T13:00:12;8.70;;;7.10;;
82869;SDS011;72645;47.136;15.420;2023-09-12T13:02:44;9.70;;;6.90;;
82869;SDS011;72645;47.136;15.420;2023-09-12T13:05:25;10.10;;;7.50;;
82869;SDS011;72645;47.136;15.420;2023-09-12T13:07:57;12.00;;;7.70;;
82869;SDS011;72645;47.136;15.420;2023-09-12T13:10:27;9.50;;;7.10;;
82869;SDS011;72645;47.136;15.420;2023-09-12T13:12:59;10.30;;;8.00;;
82869;SDS011;72645;47.136;15.420;2023-09-12T13:15:30;9.90;;;8.30;;
82869;SDS011;72645;47.136;15.420;2023-09-12T13:18:01;11.90;;;8.30;;
82869;SDS011;72645;47.136;15.420;2023-09-12T13:20:34;9.00;;;7.70;;
82869;SDS011;72645;47.136;15.420;2023-09-12T13:23:04;10.00;;;7.20;;
82869;SDS011;72645;47.136;15.420;2023-09-12T13:25:35;10.00;;;7.40;;
82869;SDS011;72645;47.136;15.420;2023-09-12T13:28:06;11.40;;;8.00;;
82869;SDS011;72645;47.136;15.420;2023-09-12T13:30:37;12.00;;;8.50;;
82869;SDS011;72645;47.136;15.420;2023-09-12T13:33:08;9.90;;;7.50;;
82869;SDS011;72645;47.136;15.420;2023-09-12T13:35:39;9.60;;;7.30;;
82869;SDS011;72645;47.136;15.420;2023-09-12T13:38:09;9.10;;;6.80;;
82869;SDS011;72645;47.136;15.420;2023-09-12T13:40:41;9.10;;;7.90;;
82869;SDS011;72645;47.136;15.420;2023-09-12T13:43:12;8.30;;;7.20;;
82869;SDS011;72645;47.136;15.420;2023-09-12T13:45:43;10.40;;;7.00;;
82869;SDS011;72645;47.136;15.420;2023-09-12T13:48:15;11.10;;;7.70;;
82869;SDS011;72645;47.136;15.420;2023-09-12T13:50:46;8.90;;;6.70;;
82869;SDS011;72645;47.136;15.420;2023-09-12T13:53:17;9.70;;;7.20;;
82869;SDS011;72645;47.136;15.420;2023-09-12T13:55:47;15.10;;;7.30;;
82869;SDS011;72645;47.136;15.420;2023-09-12T13:58:30;10.30;;;7.40;;
82869;SDS011;72645;47.136;15.420;2023-09-12T14:01:09;14.10;;;7.80;;
82869;SDS011;72645;47.136;15.420;2023-09-12T14:03:51;16.30;;;8.30;;
82869;SDS011;72645;47.136;15.420;2023-09-12T14:06:23;9.50;;;7.20;;
82869;SDS011;72645;47.136;15.420;2023-09-12T14:08:54;11.00;;;7.20;;
82869;SDS011;72645;47.136;15.420;2023-09-12T14:11:26;11.30;;;7.50;;
82869;SDS011;72645;47.136;15.420;2023-09-12T14:14:03;10.10;;;7.50;;
82869;SDS011;72645;47.136;15.420;2023-09-12T14:16:44;10.60;;;7.20;;
82869;SDS011;72645;47.136;15.420;2023-09-12T14:19:16;11.50;;;7.50;;
82869;SDS011;72645;47.136;15.420;2023-09-12T14:21:48;11.40;;;7.50;;
82869;SDS011;72645;47.136;15.420;2023-09-12T14:24:21;11.30;;;8.00;;
82869;SDS011;72645;47.136;15.420;2023-09-12T14:26:53;9.70;;;8.20;;
82869;SDS011;72645;47.136;15.420;2023-09-12T14:29:25;11.20;;;7.60;;
82869;SDS011;72645;47.136;15.420;2023-09-12T14:31:58;11.00;;;8.20;;
82869;SDS011;72645;47.136;15.420;2023-09-12T14:34:28;10.40;;;7.70;;
82869;SDS011;72645;47.136;15.420;2023-09-12T14:37:00;10.70;;;8.70;;
82869;SDS011;72645;47.136;15.420;2023-09-12T14:39:31;12.60;;;9.50;;
82869;SDS011;72645;47.136;15.420;2023-09-12T14:42:03;12.50;;;9.00;;
82869;SDS011;72645;47.136;15.420;2023-09-12T14:44:36;9.80;;;8.20;;
82869;SDS011;72645;47.136;15.420;2023-09-12T14:47:07;14.70;;;8.20;;
82869;SDS011;72645;47.136;15.420;2023-09-12T14:49:38;11.00;;;8.40;;
82869;SDS011;72645;47.136;15.420;2023-09-12T14:52:18;9.00;;;7.40;;
82869;SDS011;72645;47.136;15.420;2023-09-12T14:54:55;10.80;;;7.60;;
82869;SDS011;72645;47.136;15.420;2023-09-12T14:57:26;11.70;;;7.90;;
82869;SDS011;72645;47.136;15.420;2023-09-12T14:59:57;11.70;;;8.00;;
82869;SDS011;72645;47.136;15.420;2023-09-12T15:02:28;10.70;;;7.90;;